sensor_id;sensor_type;location;lat;lon;timestamp;P1;durP1;ratioP1;P2;durP2;ratioP2
15194;SDS011;7698;42.478;23.756;2023-12-04T00:01:31;4.40;;;3.83;;
15194;SDS011;7698;42.478;23.756;2023-12-04T00:03:58;4.70;;;4.28;;
15194;SDS011;7698;42.478;23.756;2023-12-04T00:06:24;4.47;;;4.07;;
15194;SDS011;7698;42.478;23.756;2023-12-04T00:08:52;5.32;;;4.70;;
15194;SDS011;7698;42.478;23.756;2023-12-04T00:11:19;6.20;;;3.92;;
15194;SDS011;7698;42.478;23.756;2023-12-04T00:13:45;4.97;;;4.50;;
15194;SDS011;7698;42.478;23.756;2023-12-04T00:16:12;5.20;;;4.38;;
15194;SDS011;7698;42.478;23.756;2023-12-04T00:18:38;5.20;;;4.70;;
15194;SDS011;7698;42.478;23.756;2023-12-04T00:21:05;4.30;;;3.78;;
15194;SDS011;7698;42.478;23.756;2023-12-04T00:23:32;4.55;;;4.13;;
15194;SDS011;7698;42.478;23.756;2023-12-04T00:25:59;5.20;;;4.63;;
15194;SDS011;7698;42.478;23.756;2023-12-04T00:28:27;4.53;;;4.13;;
15194;SDS011;7698;42.478;23.756;2023-12-04T00:30:54;4.88;;;4.28;;
15194;SDS011;7698;42.478;23.756;2023-12-04T00:33:20;5.60;;;4.50;;
15194;SDS011;7698;42.478;23.756;2023-12-04T00:35:47;5.10;;;4.40;;
15194;SDS011;7698;42.478;23.756;2023-12-04T00:38:13;5.43;;;4.88;;
15194;SDS011;7698;42.478;23.756;2023-12-04T00:40:40;5.00;;;4.47;;
15194;SDS011;7698;42.478;23.756;2023-12-04T00:43:08;6.25;;;5.28;;
15194;SDS011;7698;42.478;23.756;2023-12-04T00:45:35;5.18;;;4.55;;
15194;SDS011;7698;42.478;23.756;2023-12-04T00:48:02;6.72;;;5.03;;
15194;SDS011;7698;42.478;23.756;2023-12-04T00:50:28;5.90;;;5.05;;
15194;SDS011;7698;42.478;23.756;2023-12-04T00:52:55;5.05;;;4.43;;
15194;SDS011;7698;42.478;23.756;2023-12-04T00:55:22;5.32;;;4.80;;
15194;SDS011;7698;42.478;23.756;2023-12-04T00:57:48;6.70;;;4.95;;
15194;SDS011;7698;42.478;23.756;2023-12-04T01:00:16;5.78;;;4.90;;
15194;SDS011;7698;42.478;23.756;2023-12-04T01:02:43;4.97;;;4.47;;
15194;SDS011;7698;42.478;23.756;2023-12-04T01:05:10;5.60;;;4.80;;
15194;SDS011;7698;42.478;23.756;2023-12-04T01:07:36;5.40;;;4.90;;
15194;SDS011;7698;42.478;23.756;2023-12-04T01:10:03;5.82;;;5.18;;
15194;SDS011;7698;42.478;23.756;2023-12-04T01:12:30;5.90;;;5.15;;
15194;SDS011;7698;42.478;23.756;2023-12-04T01:14:56;5.97;;;4.90;;
15194;SDS011;7698;42.478;23.756;2023-12-04T01:17:24;7.45;;;6.00;;
15194;SDS011;7698;42.478;23.756;2023-12-04T01:19:51;6.68;;;5.30;;
15194;SDS011;7698;42.478;23.756;2023-12-04T01:22:17;6.28;;;5.15;;
15194;SDS011;7698;42.478;23.756;2023-12-04T01:24:44;7.30;;;5.45;;
15194;SDS011;7698;42.478;23.756;2023-12-04T01:27:10;6.03;;;5.40;;
15194;SDS011;7698;42.478;23.756;2023-12-04T01:29:37;7.70;;;6.20;;
15194;SDS011;7698;42.478;23.756;2023-12-04T01:32:04;6.53;;;5.63;;
15194;SDS011;7698;42.478;23.756;2023-12-04T01:34:32;5.70;;;5.00;;
15194;SDS011;7698;42.478;23.756;2023-12-04T01:36:59;7.05;;;5.97;;
15194;SDS011;7698;42.478;23.756;2023-12-04T01:39:25;5.55;;;5.05;;
15194;SDS011;7698;42.478;23.756;2023-12-04T01:41:52;6.95;;;5.65;;
15194;SDS011;7698;42.478;23.756;2023-12-04T01:44:18;6.45;;;5.32;;
15194;SDS011;7698;42.478;23.756;2023-12-04T01:46:46;6.07;;;5.22;;
15194;SDS011;7698;42.478;23.756;2023-12-04T01:49:13;6.90;;;5.40;;
15194;SDS011;7698;42.478;23.756;2023-12-04T01:51:41;6.90;;;5.55;;
15194;SDS011;7698;42.478;23.756;2023-12-04T01:54:08;7.23;;;5.80;;
15194;SDS011;7698;42.478;23.756;2023-12-04T01:56:34;5.40;;;4.72;;
15194;SDS011;7698;42.478;23.756;2023-12-04T01:59:02;5.90;;;5.30;;
15194;SDS011;7698;42.478;23.756;2023-12-04T02:01:29;6.38;;;5.10;;
15194;SDS011;7698;42.478;23.756;2023-12-04T02:03:56;5.30;;;4.45;;
15194;SDS011;7698;42.478;23.756;2023-12-04T02:06:24;5.50;;;4.80;;
15194;SDS011;7698;42.478;23.756;2023-12-04T02:08:52;5.80;;;5.20;;
15194;SDS011;7698;42.478;23.756;2023-12-04T02:11:19;4.97;;;4.47;;
15194;SDS011;7698;42.478;23.756;2023-12-04T02:13:45;6.40;;;4.57;;
15194;SDS011;7698;42.478;23.756;2023-12-04T02:16:12;5.15;;;4.25;;
15194;SDS011;7698;42.478;23.756;2023-12-04T02:18:41;4.95;;;4.32;;
15194;SDS011;7698;42.478;23.756;2023-12-04T02:21:07;5.18;;;4.68;;
15194;SDS011;7698;42.478;23.756;2023-12-04T02:23:34;5.88;;;5.28;;
15194;SDS011;7698;42.478;23.756;2023-12-04T02:26:03;6.43;;;5.78;;
15194;SDS011;7698;42.478;23.756;2023-12-04T02:28:32;6.13;;;5.22;;
15194;SDS011;7698;42.478;23.756;2023-12-04T02:31:00;6.00;;;5.40;;
15194;SDS011;7698;42.478;23.756;2023-12-04T02:33:27;6.28;;;5.68;;
15194;SDS011;7698;42.478;23.756;2023-12-04T02:35:55;6.17;;;5.20;;
15194;SDS011;7698;42.478;23.756;2023-12-04T02:38:22;6.50;;;5.32;;
15194;SDS011;7698;42.478;23.756;2023-12-04T02:40:49;6.77;;;5.47;;
15194;SDS011;7698;42.478;23.756;2023-12-04T02:43:17;6.38;;;5.78;;
15194;SDS011;7698;42.478;23.756;2023-12-04T02:45:44;6.85;;;6.15;;
15194;SDS011;7698;42.478;23.756;2023-12-04T02:48:10;6.55;;;5.43;;
15194;SDS011;7698;42.478;23.756;2023-12-04T02:50:37;6.30;;;5.53;;
15194;SDS011;7698;42.478;23.756;2023-12-04T02:53:03;6.25;;;5.47;;
15194;SDS011;7698;42.478;23.756;2023-12-04T02:55:30;5.85;;;5.25;;
15194;SDS011;7698;42.478;23.756;2023-12-04T02:57:56;7.60;;;5.95;;
15194;SDS011;7698;42.478;23.756;2023-12-04T03:00:24;8.00;;;6.15;;
15194;SDS011;7698;42.478;23.756;2023-12-04T03:02:51;7.10;;;5.83;;
15194;SDS011;7698;42.478;23.756;2023-12-04T03:05:17;6.70;;;6.10;;
15194;SDS011;7698;42.478;23.756;2023-12-04T03:07:45;7.13;;;6.00;;
15194;SDS011;7698;42.478;23.756;2023-12-04T03:10:12;7.93;;;6.00;;
15194;SDS011;7698;42.478;23.756;2023-12-04T03:12:38;8.40;;;6.37;;
15194;SDS011;7698;42.478;23.756;2023-12-04T03:15:05;6.50;;;5.63;;
15194;SDS011;7698;42.478;23.756;2023-12-04T03:17:33;8.10;;;6.07;;
15194;SDS011;7698;42.478;23.756;2023-12-04T03:19:59;9.33;;;6.73;;
15194;SDS011;7698;42.478;23.756;2023-12-04T03:22:26;7.97;;;6.40;;
15194;SDS011;7698;42.478;23.756;2023-12-04T03:24:52;8.30;;;6.30;;
15194;SDS011;7698;42.478;23.756;2023-12-04T03:27:19;7.23;;;6.07;;
15194;SDS011;7698;42.478;23.756;2023-12-04T03:29:45;7.97;;;7.17;;
15194;SDS011;7698;42.478;23.756;2023-12-04T03:32:12;7.67;;;6.80;;
15194;SDS011;7698;42.478;23.756;2023-12-04T03:34:40;7.68;;;6.43;;
15194;SDS011;7698;42.478;23.756;2023-12-04T03:37:06;8.90;;;6.47;;
15194;SDS011;7698;42.478;23.756;2023-12-04T03:39:33;6.57;;;5.90;;
15194;SDS011;7698;42.478;23.756;2023-12-04T03:41:59;8.25;;;6.55;;
15194;SDS011;7698;42.478;23.756;2023-12-04T03:44:26;7.60;;;5.82;;
15194;SDS011;7698;42.478;23.756;2023-12-04T03:46:52;7.13;;;6.10;;
15194;SDS011;7698;42.478;23.756;2023-12-04T03:49:19;6.83;;;6.10;;
15194;SDS011;7698;42.478;23.756;2023-12-04T03:51:47;8.05;;;6.20;;
15194;SDS011;7698;42.478;23.756;2023-12-04T03:54:13;6.93;;;5.95;;
15194;SDS011;7698;42.478;23.756;2023-12-04T03:56:40;8.43;;;6.50;;
15194;SDS011;7698;42.478;23.756;2023-12-04T03:59:08;7.88;;;6.15;;
15194;SDS011;7698;42.478;23.756;2023-12-04T04:01:34;6.80;;;6.10;;
15194;SDS011;7698;42.478;23.756;2023-12-04T04:04:01;7.30;;;6.00;;
15194;SDS011;7698;42.478;23.756;2023-12-04T04:06:27;6.35;;;5.32;;
15194;SDS011;7698;42.478;23.756;2023-12-04T04:08:55;6.10;;;5.38;;
15194;SDS011;7698;42.478;23.756;2023-12-04T04:11:22;6.68;;;5.15;;
15194;SDS011;7698;42.478;23.756;2023-12-04T04:13:48;6.60;;;5.93;;
15194;SDS011;7698;42.478;23.756;2023-12-04T04:16:15;8.00;;;6.33;;
15194;SDS011;7698;42.478;23.756;2023-12-04T04:18:42;7.30;;;5.83;;
15194;SDS011;7698;42.478;23.756;2023-12-04T04:21:09;6.57;;;5.87;;
15194;SDS011;7698;42.478;23.756;2023-12-04T04:23:35;7.95;;;6.10;;
15194;SDS011;7698;42.478;23.756;2023-12-04T04:26:03;6.17;;;5.40;;
15194;SDS011;7698;42.478;23.756;2023-12-04T04:28:30;6.50;;;5.53;;
15194;SDS011;7698;42.478;23.756;2023-12-04T04:30:56;5.75;;;4.72;;
15194;SDS011;7698;42.478;23.756;2023-12-04T04:33:23;6.37;;;5.63;;
15194;SDS011;7698;42.478;23.756;2023-12-04T04:35:49;7.73;;;5.40;;
15194;SDS011;7698;42.478;23.756;2023-12-04T04:38:16;7.27;;;6.07;;
15194;SDS011;7698;42.478;23.756;2023-12-04T04:40:42;6.17;;;5.50;;
15194;SDS011;7698;42.478;23.756;2023-12-04T04:43:11;6.87;;;6.17;;
15194;SDS011;7698;42.478;23.756;2023-12-04T04:45:37;6.33;;;5.03;;
15194;SDS011;7698;42.478;23.756;2023-12-04T04:48:04;5.70;;;5.10;;
15194;SDS011;7698;42.478;23.756;2023-12-04T04:50:31;6.40;;;5.33;;
15194;SDS011;7698;42.478;23.756;2023-12-04T04:52:57;6.72;;;5.28;;
15194;SDS011;7698;42.478;23.756;2023-12-04T04:55:24;6.20;;;5.47;;
15194;SDS011;7698;42.478;23.756;2023-12-04T04:57:51;5.85;;;5.18;;
15194;SDS011;7698;42.478;23.756;2023-12-04T05:00:19;5.90;;;5.17;;
15194;SDS011;7698;42.478;23.756;2023-12-04T05:02:46;6.03;;;5.40;;
15194;SDS011;7698;42.478;23.756;2023-12-04T05:05:12;6.23;;;5.47;;
15194;SDS011;7698;42.478;23.756;2023-12-04T05:07:39;5.80;;;5.30;;
15194;SDS011;7698;42.478;23.756;2023-12-04T05:10:06;5.90;;;5.20;;
15194;SDS011;7698;42.478;23.756;2023-12-04T05:12:32;5.80;;;5.20;;
15194;SDS011;7698;42.478;23.756;2023-12-04T05:14:59;5.70;;;4.63;;
15194;SDS011;7698;42.478;23.756;2023-12-04T05:17:27;5.40;;;4.83;;
15194;SDS011;7698;42.478;23.756;2023-12-04T05:19:54;6.60;;;5.13;;
15194;SDS011;7698;42.478;23.756;2023-12-04T05:22:20;5.68;;;4.82;;
15194;SDS011;7698;42.478;23.756;2023-12-04T05:24:47;6.38;;;4.28;;
15194;SDS011;7698;42.478;23.756;2023-12-04T05:27:13;5.55;;;5.00;;
15194;SDS011;7698;42.478;23.756;2023-12-04T05:29:40;5.68;;;4.45;;
15194;SDS011;7698;42.478;23.756;2023-12-04T05:32:07;5.60;;;4.60;;
15194;SDS011;7698;42.478;23.756;2023-12-04T05:34:35;5.13;;;4.63;;
15194;SDS011;7698;42.478;23.756;2023-12-04T05:37:01;5.47;;;4.47;;
15194;SDS011;7698;42.478;23.756;2023-12-04T05:39:28;5.57;;;4.90;;
15194;SDS011;7698;42.478;23.756;2023-12-04T05:41:55;5.57;;;4.87;;
15194;SDS011;7698;42.478;23.756;2023-12-04T05:44:21;7.13;;;5.22;;
15194;SDS011;7698;42.478;23.756;2023-12-04T05:46:48;7.00;;;5.80;;
15194;SDS011;7698;42.478;23.756;2023-12-04T05:49:15;6.18;;;5.50;;
15194;SDS011;7698;42.478;23.756;2023-12-04T05:51:43;4.95;;;4.50;;
15194;SDS011;7698;42.478;23.756;2023-12-04T05:54:09;5.18;;;4.55;;
15194;SDS011;7698;42.478;23.756;2023-12-04T05:56:36;7.17;;;4.83;;
15194;SDS011;7698;42.478;23.756;2023-12-04T05:59:02;5.30;;;4.38;;
15194;SDS011;7698;42.478;23.756;2023-12-04T06:01:29;4.83;;;4.33;;
15194;SDS011;7698;42.478;23.756;2023-12-04T06:03:56;6.40;;;5.40;;
15194;SDS011;7698;42.478;23.756;2023-12-04T06:06:22;6.72;;;5.10;;
15194;SDS011;7698;42.478;23.756;2023-12-04T06:08:50;6.07;;;4.43;;
15194;SDS011;7698;42.478;23.756;2023-12-04T06:11:17;5.75;;;5.10;;
15194;SDS011;7698;42.478;23.756;2023-12-04T06:13:43;6.10;;;5.00;;
15194;SDS011;7698;42.478;23.756;2023-12-04T06:16:10;5.72;;;4.70;;
15194;SDS011;7698;42.478;23.756;2023-12-04T06:18:36;5.00;;;4.57;;
15194;SDS011;7698;42.478;23.756;2023-12-04T06:21:03;5.30;;;4.80;;
15194;SDS011;7698;42.478;23.756;2023-12-04T06:23:30;5.23;;;4.73;;
15194;SDS011;7698;42.478;23.756;2023-12-04T06:25:58;5.55;;;4.85;;
15194;SDS011;7698;42.478;23.756;2023-12-04T06:28:25;5.70;;;5.10;;
15194;SDS011;7698;42.478;23.756;2023-12-04T06:30:52;5.88;;;5.28;;
15194;SDS011;7698;42.478;23.756;2023-12-04T06:33:19;5.15;;;4.65;;
15194;SDS011;7698;42.478;23.756;2023-12-04T06:35:45;6.05;;;5.43;;
15194;SDS011;7698;42.478;23.756;2023-12-04T06:38:13;5.85;;;5.05;;
15194;SDS011;7698;42.478;23.756;2023-12-04T06:40:41;6.75;;;5.80;;
15194;SDS011;7698;42.478;23.756;2023-12-04T06:43:09;5.80;;;5.20;;
15194;SDS011;7698;42.478;23.756;2023-12-04T06:45:36;5.78;;;5.18;;
15194;SDS011;7698;42.478;23.756;2023-12-04T06:48:03;7.13;;;6.18;;
15194;SDS011;7698;42.478;23.756;2023-12-04T06:50:30;7.72;;;6.25;;
15194;SDS011;7698;42.478;23.756;2023-12-04T06:52:56;6.90;;;6.20;;
15194;SDS011;7698;42.478;23.756;2023-12-04T06:55:23;7.15;;;6.38;;
15194;SDS011;7698;42.478;23.756;2023-12-04T06:57:50;6.13;;;5.53;;
15194;SDS011;7698;42.478;23.756;2023-12-04T07:00:18;6.47;;;4.40;;
15194;SDS011;7698;42.478;23.756;2023-12-04T07:02:45;6.20;;;5.50;;
15194;SDS011;7698;42.478;23.756;2023-12-04T07:05:11;6.35;;;5.10;;
15194;SDS011;7698;42.478;23.756;2023-12-04T07:07:38;7.30;;;5.90;;
15194;SDS011;7698;42.478;23.756;2023-12-04T07:10:05;8.57;;;6.20;;
15194;SDS011;7698;42.478;23.756;2023-12-04T07:12:31;6.70;;;5.88;;
15194;SDS011;7698;42.478;23.756;2023-12-04T07:14:58;6.40;;;5.75;;
15194;SDS011;7698;42.478;23.756;2023-12-04T07:17:26;6.75;;;5.95;;
15194;SDS011;7698;42.478;23.756;2023-12-04T07:19:52;6.65;;;6.00;;
15194;SDS011;7698;42.478;23.756;2023-12-04T07:22:19;7.57;;;6.32;;
15194;SDS011;7698;42.478;23.756;2023-12-04T07:24:46;6.97;;;6.25;;
15194;SDS011;7698;42.478;23.756;2023-12-04T07:27:12;6.25;;;5.63;;
15194;SDS011;7698;42.478;23.756;2023-12-04T07:29:39;6.88;;;5.90;;
15194;SDS011;7698;42.478;23.756;2023-12-04T07:32:06;6.10;;;4.80;;
15194;SDS011;7698;42.478;23.756;2023-12-04T07:34:34;6.22;;;5.63;;
15194;SDS011;7698;42.478;23.756;2023-12-04T07:37:02;6.35;;;4.93;;
15194;SDS011;7698;42.478;23.756;2023-12-04T07:39:28;5.50;;;4.93;;
15194;SDS011;7698;42.478;23.756;2023-12-04T07:41:55;6.55;;;5.03;;
15194;SDS011;7698;42.478;23.756;2023-12-04T07:44:21;6.13;;;5.53;;
15194;SDS011;7698;42.478;23.756;2023-12-04T07:46:48;5.72;;;5.18;;
15194;SDS011;7698;42.478;23.756;2023-12-04T07:49:15;6.28;;;5.68;;
15194;SDS011;7698;42.478;23.756;2023-12-04T07:51:43;9.32;;;5.45;;
15194;SDS011;7698;42.478;23.756;2023-12-04T07:54:09;6.38;;;5.32;;
15194;SDS011;7698;42.478;23.756;2023-12-04T07:56:36;5.82;;;5.03;;
15194;SDS011;7698;42.478;23.756;2023-12-04T07:59:03;5.78;;;5.20;;
15194;SDS011;7698;42.478;23.756;2023-12-04T08:01:29;6.40;;;5.70;;
15194;SDS011;7698;42.478;23.756;2023-12-04T08:03:56;7.32;;;5.88;;
15194;SDS011;7698;42.478;23.756;2023-12-04T08:06:22;6.55;;;5.30;;
15194;SDS011;7698;42.478;23.756;2023-12-04T08:08:50;6.72;;;5.72;;
15194;SDS011;7698;42.478;23.756;2023-12-04T08:11:18;8.25;;;5.72;;
15194;SDS011;7698;42.478;23.756;2023-12-04T08:13:44;6.93;;;6.13;;
15194;SDS011;7698;42.478;23.756;2023-12-04T08:16:14;6.72;;;6.03;;
15194;SDS011;7698;42.478;23.756;2023-12-04T08:18:41;8.02;;;6.35;;
15194;SDS011;7698;42.478;23.756;2023-12-04T08:21:08;5.70;;;5.05;;
15194;SDS011;7698;42.478;23.756;2023-12-04T08:23:35;6.18;;;5.03;;
15194;SDS011;7698;42.478;23.756;2023-12-04T08:26:03;5.88;;;5.28;;
15194;SDS011;7698;42.478;23.756;2023-12-04T08:28:30;5.63;;;5.13;;
15194;SDS011;7698;42.478;23.756;2023-12-04T08:30:57;6.90;;;6.30;;
15194;SDS011;7698;42.478;23.756;2023-12-04T08:33:23;5.30;;;4.80;;
15194;SDS011;7698;42.478;23.756;2023-12-04T08:35:50;4.40;;;4.00;;
15194;SDS011;7698;42.478;23.756;2023-12-04T08:38:17;4.47;;;4.07;;
15194;SDS011;7698;42.478;23.756;2023-12-04T08:40:43;4.78;;;4.32;;
15194;SDS011;7698;42.478;23.756;2023-12-04T08:43:11;6.40;;;4.72;;
15194;SDS011;7698;42.478;23.756;2023-12-04T08:45:38;4.45;;;4.05;;
15194;SDS011;7698;42.478;23.756;2023-12-04T08:48:04;5.03;;;4.53;;
15194;SDS011;7698;42.478;23.756;2023-12-04T08:50:31;4.90;;;4.40;;
15194;SDS011;7698;42.478;23.756;2023-12-04T08:52:58;5.40;;;3.97;;
15194;SDS011;7698;42.478;23.756;2023-12-04T08:55:24;5.18;;;4.68;;
15194;SDS011;7698;42.478;23.756;2023-12-04T08:57:51;4.50;;;4.05;;
15194;SDS011;7698;42.478;23.756;2023-12-04T09:00:19;5.22;;;4.18;;
15194;SDS011;7698;42.478;23.756;2023-12-04T09:02:47;4.93;;;4.43;;
15194;SDS011;7698;42.478;23.756;2023-12-04T09:05:13;4.82;;;4.20;;
15194;SDS011;7698;42.478;23.756;2023-12-04T09:07:40;6.50;;;5.28;;
15194;SDS011;7698;42.478;23.756;2023-12-04T09:10:06;5.38;;;4.38;;
15194;SDS011;7698;42.478;23.756;2023-12-04T09:12:33;5.88;;;5.00;;
15194;SDS011;7698;42.478;23.756;2023-12-04T09:15:02;5.07;;;4.57;;
15194;SDS011;7698;42.478;23.756;2023-12-04T09:17:30;5.38;;;4.63;;
15194;SDS011;7698;42.478;23.756;2023-12-04T09:19:56;5.03;;;4.50;;
15194;SDS011;7698;42.478;23.756;2023-12-04T09:22:23;4.43;;;4.03;;
15194;SDS011;7698;42.478;23.756;2023-12-04T09:24:49;3.60;;;3.30;;
15194;SDS011;7698;42.478;23.756;2023-12-04T09:27:16;4.07;;;3.53;;
15194;SDS011;7698;42.478;23.756;2023-12-04T09:29:43;4.82;;;4.43;;
15194;SDS011;7698;42.478;23.756;2023-12-04T09:32:09;4.57;;;4.13;;
15194;SDS011;7698;42.478;23.756;2023-12-04T09:34:37;4.35;;;3.95;;
15194;SDS011;7698;42.478;23.756;2023-12-04T09:37:04;6.43;;;4.70;;
15194;SDS011;7698;42.478;23.756;2023-12-04T09:39:31;4.78;;;4.32;;
15194;SDS011;7698;42.478;23.756;2023-12-04T09:42:00;4.85;;;4.35;;
15194;SDS011;7698;42.478;23.756;2023-12-04T09:44:28;5.45;;;4.95;;
15194;SDS011;7698;42.478;23.756;2023-12-04T09:46:55;5.55;;;5.00;;
15194;SDS011;7698;42.478;23.756;2023-12-04T09:49:22;4.68;;;4.20;;
15194;SDS011;7698;42.478;23.756;2023-12-04T09:51:50;5.18;;;4.68;;
15194;SDS011;7698;42.478;23.756;2023-12-04T09:54:17;4.22;;;3.92;;
15194;SDS011;7698;42.478;23.756;2023-12-04T09:56:44;5.13;;;4.20;;
15194;SDS011;7698;42.478;23.756;2023-12-04T09:59:12;5.50;;;4.70;;
15194;SDS011;7698;42.478;23.756;2023-12-04T10:01:40;5.57;;;5.07;;
15194;SDS011;7698;42.478;23.756;2023-12-04T10:04:08;4.55;;;4.15;;
15194;SDS011;7698;42.478;23.756;2023-12-04T10:06:34;5.00;;;4.43;;
15194;SDS011;7698;42.478;23.756;2023-12-04T10:09:04;5.63;;;5.13;;
15194;SDS011;7698;42.478;23.756;2023-12-04T10:11:38;5.18;;;4.68;;
15194;SDS011;7698;42.478;23.756;2023-12-04T10:14:06;5.13;;;4.60;;
15194;SDS011;7698;42.478;23.756;2023-12-04T10:16:38;7.18;;;6.03;;
15194;SDS011;7698;42.478;23.756;2023-12-04T10:19:14;5.78;;;5.28;;
15194;SDS011;7698;42.478;23.756;2023-12-04T10:21:42;5.13;;;4.63;;
15194;SDS011;7698;42.478;23.756;2023-12-04T10:24:10;5.40;;;4.90;;
15194;SDS011;7698;42.478;23.756;2023-12-04T10:26:37;4.53;;;4.13;;
15194;SDS011;7698;42.478;23.756;2023-12-04T10:29:03;3.85;;;3.55;;
15194;SDS011;7698;42.478;23.756;2023-12-04T10:31:32;4.93;;;4.53;;
15194;SDS011;7698;42.478;23.756;2023-12-04T10:33:59;5.72;;;3.95;;
15194;SDS011;7698;42.478;23.756;2023-12-04T10:36:26;4.50;;;4.10;;
15194;SDS011;7698;42.478;23.756;2023-12-04T10:38:57;4.78;;;4.30;;
15194;SDS011;7698;42.478;23.756;2023-12-04T10:41:26;5.07;;;4.57;;
15194;SDS011;7698;42.478;23.756;2023-12-04T10:43:52;4.47;;;4.07;;
15194;SDS011;7698;42.478;23.756;2023-12-04T10:46:19;6.25;;;5.65;;
15194;SDS011;7698;42.478;23.756;2023-12-04T10:48:46;4.50;;;4.00;;
15194;SDS011;7698;42.478;23.756;2023-12-04T10:51:13;5.38;;;4.88;;
15194;SDS011;7698;42.478;23.756;2023-12-04T10:53:42;5.22;;;4.72;;
15194;SDS011;7698;42.478;23.756;2023-12-04T10:56:10;5.43;;;4.93;;
15194;SDS011;7698;42.478;23.756;2023-12-04T10:58:39;4.15;;;3.80;;
15194;SDS011;7698;42.478;23.756;2023-12-04T11:01:06;4.85;;;4.45;;
15194;SDS011;7698;42.478;23.756;2023-12-04T11:03:34;5.18;;;4.50;;
15194;SDS011;7698;42.478;23.756;2023-12-04T11:06:03;4.53;;;4.03;;
15194;SDS011;7698;42.478;23.756;2023-12-04T11:08:33;4.43;;;3.97;;
15194;SDS011;7698;42.478;23.756;2023-12-04T11:11:01;5.20;;;4.40;;
15194;SDS011;7698;42.478;23.756;2023-12-04T11:13:29;4.70;;;4.30;;
15194;SDS011;7698;42.478;23.756;2023-12-04T11:15:59;4.30;;;3.90;;
15194;SDS011;7698;42.478;23.756;2023-12-04T11:18:27;4.35;;;3.95;;
15194;SDS011;7698;42.478;23.756;2023-12-04T11:20:55;4.50;;;4.10;;
15194;SDS011;7698;42.478;23.756;2023-12-04T11:23:23;3.90;;;3.50;;
15194;SDS011;7698;42.478;23.756;2023-12-04T11:25:49;4.32;;;3.92;;
15194;SDS011;7698;42.478;23.756;2023-12-04T11:28:16;3.88;;;3.58;;
15194;SDS011;7698;42.478;23.756;2023-12-04T11:30:43;4.30;;;3.95;;
15194;SDS011;7698;42.478;23.756;2023-12-04T11:33:12;3.65;;;3.35;;
15194;SDS011;7698;42.478;23.756;2023-12-04T11:35:39;4.18;;;3.55;;
15194;SDS011;7698;42.478;23.756;2023-12-04T11:38:05;4.25;;;3.85;;
15194;SDS011;7698;42.478;23.756;2023-12-04T11:40:34;3.70;;;3.40;;
15194;SDS011;7698;42.478;23.756;2023-12-04T11:43:05;3.95;;;3.55;;
15194;SDS011;7698;42.478;23.756;2023-12-04T11:45:31;5.63;;;5.13;;
15194;SDS011;7698;42.478;23.756;2023-12-04T11:47:58;4.13;;;3.80;;
15194;SDS011;7698;42.478;23.756;2023-12-04T11:50:26;5.00;;;4.00;;
15194;SDS011;7698;42.478;23.756;2023-12-04T11:52:53;4.35;;;3.95;;
15194;SDS011;7698;42.478;23.756;2023-12-04T11:55:21;3.70;;;3.40;;
15194;SDS011;7698;42.478;23.756;2023-12-04T11:57:48;4.15;;;3.60;;
15194;SDS011;7698;42.478;23.756;2023-12-04T12:00:19;4.07;;;3.67;;
15194;SDS011;7698;42.478;23.756;2023-12-04T12:02:48;5.88;;;5.32;;
15194;SDS011;7698;42.478;23.756;2023-12-04T12:05:15;5.35;;;4.85;;
15194;SDS011;7698;42.478;23.756;2023-12-04T12:07:43;3.95;;;3.65;;
15194;SDS011;7698;42.478;23.756;2023-12-04T12:10:10;3.70;;;3.40;;
15194;SDS011;7698;42.478;23.756;2023-12-04T12:12:38;5.13;;;4.63;;
15194;SDS011;7698;42.478;23.756;2023-12-04T12:15:08;4.63;;;4.22;;
15194;SDS011;7698;42.478;23.756;2023-12-04T12:17:34;4.38;;;3.97;;
15194;SDS011;7698;42.478;23.756;2023-12-04T12:20:01;4.47;;;4.07;;
15194;SDS011;7698;42.478;23.756;2023-12-04T12:22:32;4.55;;;3.92;;
15194;SDS011;7698;42.478;23.756;2023-12-04T12:24:59;4.47;;;4.07;;
15194;SDS011;7698;42.478;23.756;2023-12-04T12:27:27;5.13;;;3.70;;
15194;SDS011;7698;42.478;23.756;2023-12-04T12:29:53;3.45;;;3.15;;
15194;SDS011;7698;42.478;23.756;2023-12-04T12:32:20;3.10;;;2.90;;
15194;SDS011;7698;42.478;23.756;2023-12-04T12:34:47;3.60;;;3.30;;
15194;SDS011;7698;42.478;23.756;2023-12-04T12:37:13;3.20;;;2.95;;
15194;SDS011;7698;42.478;23.756;2023-12-04T12:39:40;3.42;;;3.13;;
15194;SDS011;7698;42.478;23.756;2023-12-04T12:42:08;3.38;;;2.97;;
15194;SDS011;7698;42.478;23.756;2023-12-04T12:44:38;5.22;;;3.20;;
15194;SDS011;7698;42.478;23.756;2023-12-04T12:47:05;2.88;;;2.67;;
15194;SDS011;7698;42.478;23.756;2023-12-04T12:49:32;3.45;;;3.15;;
15194;SDS011;7698;42.478;23.756;2023-12-04T12:52:01;3.92;;;3.03;;
15194;SDS011;7698;42.478;23.756;2023-12-04T12:54:27;3.15;;;2.80;;
15194;SDS011;7698;42.478;23.756;2023-12-04T12:56:57;3.35;;;3.08;;
15194;SDS011;7698;42.478;23.756;2023-12-04T12:59:25;2.75;;;2.55;;
15194;SDS011;7698;42.478;23.756;2023-12-04T13:01:53;3.72;;;3.42;;
15194;SDS011;7698;42.478;23.756;2023-12-04T13:04:21;4.55;;;3.20;;
15194;SDS011;7698;42.478;23.756;2023-12-04T13:06:48;3.03;;;2.42;;
15194;SDS011;7698;42.478;23.756;2023-12-04T13:09:15;2.90;;;2.60;;
15194;SDS011;7698;42.478;23.756;2023-12-04T13:11:44;2.80;;;2.60;;
15194;SDS011;7698;42.478;23.756;2023-12-04T13:14:10;3.45;;;3.05;;
15194;SDS011;7698;42.478;23.756;2023-12-04T13:16:39;2.92;;;2.63;;
15194;SDS011;7698;42.478;23.756;2023-12-04T13:19:06;2.50;;;2.30;;
15194;SDS011;7698;42.478;23.756;2023-12-04T13:21:32;3.15;;;2.35;;
15194;SDS011;7698;42.478;23.756;2023-12-04T13:23:59;3.03;;;2.53;;
15194;SDS011;7698;42.478;23.756;2023-12-04T13:26:26;3.00;;;2.67;;
15194;SDS011;7698;42.478;23.756;2023-12-04T13:28:52;2.75;;;2.55;;
15194;SDS011;7698;42.478;23.756;2023-12-04T13:31:19;2.42;;;2.22;;
15194;SDS011;7698;42.478;23.756;2023-12-04T13:33:48;3.15;;;2.85;;
15194;SDS011;7698;42.478;23.756;2023-12-04T13:36:15;2.58;;;2.30;;
15194;SDS011;7698;42.478;23.756;2023-12-04T13:38:41;3.03;;;2.63;;
15194;SDS011;7698;42.478;23.756;2023-12-04T13:41:08;3.42;;;2.85;;
15194;SDS011;7698;42.478;23.756;2023-12-04T13:43:55;3.38;;;2.80;;
15194;SDS011;7698;42.478;23.756;2023-12-04T13:46:23;2.70;;;2.42;;
15194;SDS011;7698;42.478;23.756;2023-12-04T13:48:51;10.10;;;7.70;;
15194;SDS011;7698;42.478;23.756;2023-12-04T13:51:18;3.78;;;3.47;;
15194;SDS011;7698;42.478;23.756;2023-12-04T13:53:45;4.63;;;3.97;;
15194;SDS011;7698;42.478;23.756;2023-12-04T13:56:15;3.83;;;3.33;;
15194;SDS011;7698;42.478;23.756;2023-12-04T13:59:00;2.60;;;2.40;;
15194;SDS011;7698;42.478;23.756;2023-12-04T14:01:28;2.60;;;2.40;;
15194;SDS011;7698;42.478;23.756;2023-12-04T14:03:57;2.92;;;2.63;;
15194;SDS011;7698;42.478;23.756;2023-12-04T14:06:27;3.25;;;2.95;;
15194;SDS011;7698;42.478;23.756;2023-12-04T14:08:53;3.38;;;3.08;;
15194;SDS011;7698;42.478;23.756;2023-12-04T14:11:20;2.92;;;2.63;;
15194;SDS011;7698;42.478;23.756;2023-12-04T14:13:47;2.60;;;2.40;;
15194;SDS011;7698;42.478;23.756;2023-12-04T14:16:14;3.45;;;2.90;;
15194;SDS011;7698;42.478;23.756;2023-12-04T14:18:41;2.63;;;2.42;;
15194;SDS011;7698;42.478;23.756;2023-12-04T14:21:09;3.30;;;3.00;;
15194;SDS011;7698;42.478;23.756;2023-12-04T14:23:36;3.67;;;2.88;;
15194;SDS011;7698;42.478;23.756;2023-12-04T14:26:02;4.47;;;3.47;;
15194;SDS011;7698;42.478;23.756;2023-12-04T14:28:29;4.30;;;3.80;;
15194;SDS011;7698;42.478;23.756;2023-12-04T14:30:56;3.95;;;3.65;;
15194;SDS011;7698;42.478;23.756;2023-12-04T14:33:22;4.38;;;3.90;;
15194;SDS011;7698;42.478;23.756;2023-12-04T14:35:50;4.25;;;3.80;;
15194;SDS011;7698;42.478;23.756;2023-12-04T14:38:19;4.43;;;3.75;;
15194;SDS011;7698;42.478;23.756;2023-12-04T14:40:47;4.22;;;3.80;;
15194;SDS011;7698;42.478;23.756;2023-12-04T14:43:14;5.03;;;3.70;;
15194;SDS011;7698;42.478;23.756;2023-12-04T14:45:41;4.25;;;3.85;;
15194;SDS011;7698;42.478;23.756;2023-12-04T14:48:08;4.43;;;4.03;;